Time;durP1;ratioP1;P1;durP2;ratioP2;P2;SDS_P1;SDS_P2;PMS_P1;PMS_P2;Temp;Humidity;BMP_temperature;BMP_pressure;BME280_temperature;BME280_humidity;BME280_pressure;Samples;Min_cycle;Max_cycle;Signal;HPM_P1;HPM_P2
2023/03/22 00:00:34;;;;;;;17.87;10.33;;;9.20;99.90;;;;;;4131816;28;20214;-72
2023/03/22 00:02:36;;;;;;;17.43;10.90;;;9.20;99.90;;;;;;4123725;28;21160;-72
2023/03/22 00:04:38;;;;;;;21.93;10.07;;;9.20;99.90;;;;;;4122510;28;20491;-73
2023/03/22 00:06:40;;;;;;;19.27;10.73;;;9.20;99.90;;;;;;4127162;28;20222;-72
2023/03/22 00:08:42;;;;;;;16.07;9.30;;;9.20;99.90;;;;;;4125715;28;20206;-73
2023/03/22 00:10:50;;;;;;;25.33;10.00;;;9.10;99.90;;;;;;4122796;28;21056;-73
2023/03/22 00:12:52;;;;;;;16.90;9.50;;;9.10;99.90;;;;;;4126192;28;20206;-73
2023/03/22 00:14:54;;;;;;;16.70;9.33;;;9.10;99.90;;;;;;4132586;28;20308;-73
2023/03/22 00:16:59;;;;;;;17.10;9.43;;;9.10;99.90;;;;;;4134833;28;20268;-73
2023/03/22 00:19:01;;;;;;;15.43;8.77;;;9.00;99.90;;;;;;4139863;28;20245;-73
2023/03/22 00:21:03;;;;;;;21.10;9.60;;;9.10;99.90;;;;;;4132829;28;20250;-73
2023/03/22 00:23:07;;;;;;;14.33;8.97;;;9.10;99.90;;;;;;4134011;28;20716;-73
2023/03/22 00:25:10;;;;;;;17.57;9.27;;;9.00;99.90;;;;;;4145823;28;20318;-73
2023/03/22 00:27:12;;;;;;;20.87;9.60;;;9.00;99.90;;;;;;4133890;28;20216;-73
2023/03/22 00:29:14;;;;;;;18.47;9.33;;;9.00;99.90;;;;;;4131920;28;20203;-73
2023/03/22 00:31:18;;;;;;;16.77;8.70;;;8.90;99.90;;;;;;4135980;28;20230;-73
2023/03/22 00:33:22;;;;;;;15.17;8.60;;;8.90;99.90;;;;;;4136067;28;20223;-73
2023/03/22 00:35:24;;;;;;;16.27;8.87;;;8.90;99.90;;;;;;4138004;28;20281;-73
2023/03/22 00:37:26;;;;;;;15.23;8.77;;;8.90;99.90;;;;;;4146745;28;20901;-72
2023/03/22 00:39:31;;;;;;;15.43;9.40;;;8.90;99.90;;;;;;4134834;28;20679;-71
2023/03/22 00:41:33;;;;;;;14.17;8.23;;;8.80;99.90;;;;;;4134010;28;20345;-73
2023/03/22 00:43:35;;;;;;;18.90;8.67;;;8.80;99.90;;;;;;4135017;28;20241;-73
2023/03/22 00:45:39;;;;;;;16.20;9.00;;;8.80;99.90;;;;;;4131149;28;20674;-74
2023/03/22 00:47:41;;;;;;;16.10;8.80;;;8.80;99.90;;;;;;4134975;28;20211;-73
2023/03/22 00:49:44;;;;;;;16.40;8.83;;;8.80;99.90;;;;;;4131527;28;20211;-74
2023/03/22 00:51:48;;;;;;;16.50;8.60;;;8.70;99.90;;;;;;4134067;28;20644;-74
2023/03/22 00:53:51;;;;;;;15.80;8.10;;;8.80;99.90;;;;;;4137935;28;20214;-73
2023/03/22 00:55:52;;;;;;;17.30;8.97;;;8.70;99.90;;;;;;4135806;28;20741;-73
2023/03/22 00:57:54;;;;;;;16.40;9.03;;;8.70;99.90;;;;;;4133667;28;20654;-73
2023/03/22 00:59:57;;;;;;;13.67;8.10;;;8.70;99.90;;;;;;4135616;28;20637;-74
2023/03/22 01:02:03;;;;;;;18.50;9.50;;;8.70;99.90;;;;;;4137194;28;20316;-74
2023/03/22 01:04:05;;;;;;;13.67;8.03;;;8.70;99.90;;;;;;4136690;28;20208;-73
2023/03/22 01:06:11;;;;;;;15.50;8.40;;;8.70;99.90;;;;;;4137149;28;20308;-73
2023/03/22 01:08:13;;;;;;;15.00;7.90;;;8.70;99.90;;;;;;4133728;28;20227;-74
2023/03/22 01:10:16;;;;;;;18.47;8.43;;;8.70;99.90;;;;;;4138926;28;20234;-73
2023/03/22 01:12:18;;;;;;;14.27;7.93;;;8.70;99.90;;;;;;4133781;28;20319;-73
2023/03/22 01:14:20;;;;;;;15.83;7.97;;;8.60;99.90;;;;;;4135902;28;20292;-73
2023/03/22 01:16:22;;;;;;;13.97;7.83;;;8.70;99.90;;;;;;4137463;28;20241;-73
2023/03/22 01:18:26;;;;;;;16.30;7.93;;;8.60;99.90;;;;;;4136058;28;20256;-73
2023/03/22 01:20:28;;;;;;;14.57;7.77;;;8.60;99.90;;;;;;4135411;28;20349;-73
2023/03/22 01:22:31;;;;;;;13.43;6.83;;;8.60;99.90;;;;;;4141560;28;20229;-73
2023/03/22 01:24:34;;;;;;;11.20;7.30;;;8.60;99.90;;;;;;4140332;28;20240;-72
2023/03/22 01:26:41;;;;;;;12.03;6.50;;;8.60;99.90;;;;;;4136391;28;20253;-72
2023/03/22 01:28:43;;;;;;;12.97;7.57;;;8.50;99.90;;;;;;4136398;28;20550;-72
2023/03/22 01:30:45;;;;;;;15.07;7.60;;;8.50;99.90;;;;;;4139234;28;20211;-73
2023/03/22 01:32:47;;;;;;;11.87;6.70;;;8.50;99.90;;;;;;4132441;28;20282;-72
2023/03/22 01:34:49;;;;;;;13.63;7.37;;;8.50;99.90;;;;;;4138639;28;20209;-72
2023/03/22 01:36:51;;;;;;;18.10;7.57;;;8.50;99.90;;;;;;4137677;28;20248;-72
2023/03/22 01:38:54;;;;;;;14.17;6.57;;;8.40;99.90;;;;;;4135855;28;20250;-72
2023/03/22 01:40:57;;;;;;;11.73;6.33;;;8.40;99.90;;;;;;4140289;28;20309;-72
2023/03/22 01:43:01;;;;;;;11.80;6.80;;;8.40;99.90;;;;;;4135513;28;20299;-72
2023/03/22 01:45:37;;;;;;;12.67;6.63;;;8.40;99.90;;;;;;4140424;28;20221;-73
2023/03/22 01:47:43;;;;;;;13.77;6.83;;;8.40;99.90;;;;;;4139739;28;20232;-72
2023/03/22 01:49:45;;;;;;;10.83;7.03;;;8.40;99.90;;;;;;4135083;28;20304;-72
2023/03/22 01:51:50;;;;;;;12.27;6.77;;;8.40;99.90;;;;;;4143432;28;20312;-72
2023/03/22 01:53:56;;;;;;;9.03;6.00;;;8.40;99.90;;;;;;4139166;28;20295;-72
2023/03/22 01:56:01;;;;;;;15.17;6.60;;;8.40;99.90;;;;;;4139771;28;20312;-72
2023/03/22 01:58:04;;;;;;;9.83;6.10;;;8.40;99.90;;;;;;4136151;28;20581;-72
2023/03/22 02:00:14;;;;;;;13.70;6.53;;;8.30;99.90;;;;;;4135227;28;20219;-71
2023/03/22 02:02:18;;;;;;;15.87;6.80;;;8.30;99.90;;;;;;4140373;28;20273;-72
2023/03/22 02:04:23;;;;;;;10.20;6.03;;;8.20;99.90;;;;;;4136612;28;20223;-72
2023/03/22 02:06:28;;;;;;;9.90;6.30;;;8.20;99.90;;;;;;4135476;28;20212;-71
2023/03/22 02:08:32;;;;;;;12.73;6.80;;;8.20;99.90;;;;;;4139566;28;20930;-72
2023/03/22 02:10:35;;;;;;;11.17;6.07;;;8.20;99.90;;;;;;4139420;28;20214;-71
2023/03/22 02:12:48;;;;;;;12.60;6.70;;;8.20;99.90;;;;;;4134654;28;20232;-72
2023/03/22 02:15:09;;;;;;;11.83;6.03;;;8.10;99.90;;;;;;4140176;28;20645;-72
2023/03/22 02:17:32;;;;;;;12.10;5.77;;;8.10;99.90;;;;;;4134091;28;20204;-73
2023/03/22 02:20:19;;;;;;;9.37;6.47;;;8.10;99.90;;;;;;4129581;28;20232;-73
2023/03/22 02:23:00;;;;;;;12.87;5.47;;;8.10;99.90;;;;;;4075669;28;20267;-73
2023/03/22 02:25:29;;;;;;;10.87;5.83;;;8.10;99.90;;;;;;4136137;28;20291;-74
2023/03/22 02:27:45;;;;;;;10.13;5.87;;;8.00;99.90;;;;;;4138991;28;20212;-72
2023/03/22 02:29:55;;;;;;;9.80;5.80;;;8.00;99.90;;;;;;4146972;28;20250;-73
2023/03/22 02:32:43;;;;;;;12.47;5.80;;;8.00;99.90;;;;;;4143787;28;20310;-73
2023/03/22 02:35:14;;;;;;;10.00;5.67;;;8.00;99.90;;;;;;4136339;28;20235;-72
2023/03/22 02:37:37;;;;;;;13.13;6.10;;;8.00;99.90;;;;;;4133445;28;20209;-73
2023/03/22 02:39:48;;;;;;;14.47;6.37;;;8.00;99.90;;;;;;4140677;28;20783;-72
2023/03/22 02:42:03;;;;;;;11.03;5.37;;;8.00;99.90;;;;;;4142204;28;20241;-72
2023/03/22 02:44:15;;;;;;;8.90;5.90;;;8.00;99.90;;;;;;4138068;28;20303;-73
2023/03/22 02:46:24;;;;;;;9.07;5.40;;;8.20;99.90;;;;;;4135136;28;20201;-73
2023/03/22 02:48:34;;;;;;;12.10;6.60;;;8.10;99.90;;;;;;4135365;28;20215;-73
2023/03/22 02:50:44;;;;;;;12.20;6.47;;;8.00;99.90;;;;;;4135489;28;20211;-74
2023/03/22 02:52:51;;;;;;;12.57;6.50;;;8.00;99.90;;;;;;4134594;28;20232;-73
2023/03/22 02:55:01;;;;;;;12.80;6.57;;;8.00;99.90;;;;;;4135643;28;20298;-73
2023/03/22 02:57:11;;;;;;;9.80;5.70;;;7.90;99.90;;;;;;4137692;28;20344;-73
2023/03/22 02:59:16;;;;;;;9.20;5.67;;;8.00;99.90;;;;;;4136590;28;20228;-74
2023/03/22 03:01:22;;;;;;;10.43;5.40;;;7.90;99.90;;;;;;4145249;28;20354;-73
2023/03/22 03:03:29;;;;;;;11.47;6.13;;;7.90;99.90;;;;;;4149466;28;20712;-72
2023/03/22 03:05:33;;;;;;;10.90;5.97;;;8.00;99.90;;;;;;4149638;28;20696;-73
2023/03/22 03:07:35;;;;;;;11.30;5.83;;;7.90;99.90;;;;;;4143948;28;20238;-73
2023/03/22 03:09:42;;;;;;;11.30;6.03;;;7.90;99.90;;;;;;4136857;28;20450;-73
2023/03/22 03:11:49;;;;;;;10.90;6.17;;;7.90;99.90;;;;;;4143668;28;20239;-73
2023/03/22 03:13:51;;;;;;;13.90;5.90;;;7.90;99.90;;;;;;4143888;28;20208;-73
2023/03/22 03:15:57;;;;;;;9.97;5.97;;;7.90;99.90;;;;;;4145061;28;20220;-73
2023/03/22 03:18:26;;;;;;;10.37;5.80;;;7.90;99.90;;;;;;4144997;28;20211;-74
2023/03/22 03:20:41;;;;;;;12.10;5.67;;;7.90;99.90;;;;;;4146127;28;20467;-73
2023/03/22 03:22:53;;;;;;;9.60;6.00;;;7.90;99.90;;;;;;4136984;28;20252;-73
2023/03/22 03:25:04;;;;;;;11.60;5.67;;;7.90;99.90;;;;;;4141076;28;20191;-74
2023/03/22 03:27:12;;;;;;;13.93;6.00;;;7.90;99.90;;;;;;4139283;28;20295;-74
2023/03/22 03:29:19;;;;;;;14.20;6.40;;;7.90;99.90;;;;;;4135874;28;20235;-73
2023/03/22 03:31:31;;;;;;;13.07;5.60;;;7.90;99.90;;;;;;4139853;28;20227;-73
2023/03/22 03:33:39;;;;;;;10.30;5.70;;;7.90;99.90;;;;;;4139323;28;20290;-73
2023/03/22 03:35:47;;;;;;;15.90;6.20;;;7.90;99.90;;;;;;4139064;28;20699;-74
2023/03/22 03:37:56;;;;;;;8.93;5.70;;;7.90;99.90;;;;;;4139867;28;20657;-74
2023/03/22 03:40:05;;;;;;;10.57;5.83;;;8.00;99.90;;;;;;4139370;28;20231;-73
2023/03/22 03:42:13;;;;;;;12.40;5.73;;;8.00;99.90;;;;;;4142060;28;20229;-73
2023/03/22 03:44:16;;;;;;;12.17;6.23;;;8.00;99.90;;;;;;4136496;28;20285;-73
2023/03/22 03:46:21;;;;;;;10.10;5.53;;;8.00;99.90;;;;;;4134249;28;20223;-74
2023/03/22 03:48:27;;;;;;;13.97;6.10;;;7.90;99.90;;;;;;4137592;28;20766;-74
2023/03/22 03:50:32;;;;;;;8.17;5.23;;;8.00;99.90;;;;;;4137502;28;20216;-73
2023/03/22 03:52:35;;;;;;;13.03;6.40;;;7.90;99.90;;;;;;4136969;28;20276;-73
2023/03/22 03:54:37;;;;;;;12.43;6.27;;;7.90;99.90;;;;;;4139748;28;20686;-74
2023/03/22 03:56:41;;;;;;;11.50;5.83;;;7.90;99.90;;;;;;4138964;28;20219;-73
2023/03/22 03:58:45;;;;;;;9.47;6.07;;;7.90;99.90;;;;;;4136936;28;20672;-73
2023/03/22 04:00:50;;;;;;;10.40;5.83;;;8.00;99.90;;;;;;4135919;28;20856;-73
2023/03/22 04:02:52;;;;;;;10.70;5.53;;;8.00;99.90;;;;;;4145232;28;20315;-74
2023/03/22 04:04:54;;;;;;;8.37;5.23;;;8.00;99.90;;;;;;4138181;28;20615;-73
2023/03/22 04:07:00;;;;;;;9.73;5.70;;;8.00;99.90;;;;;;4138804;28;20231;-72
2023/03/22 04:09:03;;;;;;;9.70;5.07;;;8.00;99.90;;;;;;4137716;28;20292;-73
2023/03/22 04:11:05;;;;;;;10.50;5.30;;;8.00;99.90;;;;;;4135227;28;20208;-73
2023/03/22 04:13:09;;;;;;;12.53;5.87;;;8.00;99.90;;;;;;4139450;28;20235;-73
2023/03/22 04:15:13;;;;;;;8.77;6.07;;;8.00;99.90;;;;;;4138541;28;20201;-74
2023/03/22 04:17:15;;;;;;;10.20;5.70;;;8.00;99.90;;;;;;4137629;28;20466;-74
2023/03/22 04:19:18;;;;;;;11.83;5.17;;;8.00;99.90;;;;;;4136614;28;20283;-74
2023/03/22 04:21:20;;;;;;;10.10;5.97;;;8.00;99.90;;;;;;4138633;28;20624;-73
2023/03/22 04:23:24;;;;;;;8.47;5.63;;;8.00;99.90;;;;;;4137895;28;20323;-73
2023/03/22 04:25:29;;;;;;;12.07;5.67;;;8.00;99.90;;;;;;4140135;28;20266;-72
2023/03/22 04:27:33;;;;;;;8.93;5.17;;;7.90;99.90;;;;;;4140782;28;20212;-73
2023/03/22 04:29:36;;;;;;;11.73;6.00;;;7.90;99.90;;;;;;4142778;28;20607;-72
2023/03/22 04:31:40;;;;;;;11.77;5.97;;;7.90;99.90;;;;;;4145848;28;20221;-72
2023/03/22 04:33:45;;;;;;;15.00;6.03;;;7.90;99.90;;;;;;4141491;28;20235;-73
2023/03/22 04:35:55;;;;;;;12.70;6.47;;;7.90;99.90;;;;;;4139141;28;20212;-73
2023/03/22 04:38:00;;;;;;;10.77;6.10;;;8.00;99.90;;;;;;4136931;28;20204;-73
2023/03/22 04:40:06;;;;;;;12.00;6.20;;;7.90;99.90;;;;;;4136747;28;20276;-74
2023/03/22 04:42:08;;;;;;;16.87;9.00;;;7.90;99.90;;;;;;4137973;28;20224;-73
2023/03/22 04:44:10;;;;;;;17.20;7.80;;;7.90;99.90;;;;;;4136790;28;20298;-74
2023/03/22 04:46:15;;;;;;;12.23;6.87;;;7.90;99.90;;;;;;4137031;28;20209;-74
2023/03/22 04:48:21;;;;;;;10.93;5.50;;;7.90;99.90;;;;;;4142707;28;20224;-72
2023/03/22 04:50:23;;;;;;;13.80;5.73;;;7.90;99.90;;;;;;4139991;28;20247;-72
2023/03/22 04:52:30;;;;;;;11.77;5.80;;;7.90;99.90;;;;;;4150719;28;20247;-72
2023/03/22 04:54:32;;;;;;;9.60;5.27;;;7.90;99.90;;;;;;4143296;28;20216;-72
2023/03/22 04:56:34;;;;;;;12.33;5.97;;;7.90;99.90;;;;;;4140556;28;20692;-72
2023/03/22 04:58:39;;;;;;;10.43;5.93;;;7.80;99.90;;;;;;4141046;28;20291;-73
2023/03/22 05:00:41;;;;;;;10.23;5.93;;;7.80;99.90;;;;;;4154772;28;20492;-72
2023/03/22 05:02:43;;;;;;;11.10;5.43;;;7.80;99.90;;;;;;4135727;28;20789;-73
2023/03/22 05:04:46;;;;;;;9.77;5.77;;;7.80;99.90;;;;;;4135402;28;20212;-73
2023/03/22 05:06:50;;;;;;;9.47;6.27;;;7.80;99.90;;;;;;4151303;28;20215;-73
2023/03/22 05:08:51;;;;;;;12.33;5.97;;;7.80;99.90;;;;;;4139006;28;20235;-73
2023/03/22 05:10:55;;;;;;;7.37;5.23;;;7.80;99.90;;;;;;4137702;28;20295;-73
2023/03/22 05:12:57;;;;;;;10.43;5.67;;;7.80;99.90;;;;;;4135003;28;20638;-73
2023/03/22 05:15:03;;;;;;;11.10;6.13;;;7.70;99.90;;;;;;4135195;28;20219;-73
2023/03/22 05:17:05;;;;;;;12.50;6.63;;;7.70;99.90;;;;;;4135442;28;20230;-73
2023/03/22 05:19:13;;;;;;;12.93;6.90;;;7.80;99.90;;;;;;4137195;28;20538;-73
2023/03/22 05:21:21;;;;;;;14.20;7.20;;;7.70;99.90;;;;;;4140261;28;20308;-73
2023/03/22 05:23:23;;;;;;;13.70;6.27;;;7.70;99.90;;;;;;4134154;28;20208;-73
2023/03/22 05:25:25;;;;;;;12.33;6.23;;;7.70;99.90;;;;;;4135848;28;20447;-73
2023/03/22 05:27:33;;;;;;;11.20;6.60;;;7.70;99.90;;;;;;4137932;28;20466;-73
2023/03/22 05:29:35;;;;;;;13.50;6.60;;;7.70;99.90;;;;;;4138238;28;20614;-73
2023/03/22 05:31:40;;;;;;;13.67;7.67;;;7.70;99.90;;;;;;4135494;28;21023;-73
2023/03/22 05:33:42;;;;;;;13.03;7.07;;;7.70;99.90;;;;;;4150032;28;20212;-73
2023/03/22 05:35:44;;;;;;;14.50;7.17;;;7.70;99.90;;;;;;4143171;28;20226;-73
2023/03/22 05:37:48;;;;;;;11.97;7.03;;;7.70;99.90;;;;;;4134896;28;20200;-72
2023/03/22 05:39:50;;;;;;;12.50;6.53;;;7.70;99.90;;;;;;4138240;28;20263;-73
2023/03/22 05:41:51;;;;;;;14.47;7.70;;;7.70;99.90;;;;;;4146325;28;20833;-73
2023/03/22 05:43:53;;;;;;;15.10;7.63;;;7.70;99.90;;;;;;4152096;28;20474;-73
2023/03/22 05:45:55;;;;;;;13.17;7.57;;;7.70;99.90;;;;;;4142616;28;20458;-72
2023/03/22 05:47:58;;;;;;;14.07;7.37;;;7.70;99.90;;;;;;4139190;28;20835;-72
2023/03/22 05:50:00;;;;;;;14.37;7.63;;;7.70;99.90;;;;;;4141072;28;20456;-72
2023/03/22 05:52:04;;;;;;;16.17;7.40;;;7.70;99.90;;;;;;4138004;28;20981;-72
2023/03/22 05:54:10;;;;;;;16.50;7.60;;;7.70;99.90;;;;;;4143162;28;20208;-72
2023/03/22 05:56:12;;;;;;;13.00;7.30;;;7.70;99.90;;;;;;4139321;28;20218;-72
2023/03/22 05:58:17;;;;;;;14.43;7.30;;;7.70;99.90;;;;;;4136367;28;20541;-72
2023/03/22 06:00:20;;;;;;;14.53;7.23;;;7.70;99.90;;;;;;4139236;28;20498;-72
2023/03/22 06:02:22;;;;;;;12.47;7.50;;;7.70;99.90;;;;;;4140409;28;20327;-73
2023/03/22 06:04:24;;;;;;;11.93;7.03;;;7.70;99.90;;;;;;4150453;28;20482;-73
2023/03/22 06:06:29;;;;;;;13.30;7.30;;;7.70;99.90;;;;;;4143670;28;20208;-73
2023/03/22 06:08:31;;;;;;;13.17;6.77;;;7.70;99.90;;;;;;4143264;28;20218;-72
2023/03/22 06:10:34;;;;;;;13.40;7.27;;;7.70;99.90;;;;;;4145040;28;20283;-72
2023/03/22 06:12:36;;;;;;;13.43;7.50;;;7.70;99.90;;;;;;4146781;28;20235;-72
2023/03/22 06:14:40;;;;;;;15.70;7.73;;;7.70;99.90;;;;;;4145704;28;20583;-72
2023/03/22 06:16:42;;;;;;;14.40;7.30;;;7.70;99.90;;;;;;4148080;28;20251;-72
2023/03/22 06:18:44;;;;;;;17.00;8.33;;;7.70;99.90;;;;;;4147441;28;20879;-71
2023/03/22 06:20:46;;;;;;;19.63;8.43;;;7.80;99.90;;;;;;4152380;28;20239;-72
2023/03/22 06:22:48;;;;;;;18.47;9.13;;;7.80;99.90;;;;;;4144187;28;20313;-72
2023/03/22 06:24:50;;;;;;;22.70;11.40;;;7.80;99.90;;;;;;4136341;28;20232;-72
2023/03/22 06:26:55;;;;;;;18.63;9.80;;;7.80;99.90;;;;;;4129887;28;20207;-74
2023/03/22 06:29:02;;;;;;;15.73;8.33;;;7.80;99.90;;;;;;4134881;28;20266;-73
2023/03/22 06:31:07;;;;;;;15.63;8.40;;;7.80;99.90;;;;;;4139260;28;20531;-72
2023/03/22 06:33:12;;;;;;;14.37;8.00;;;7.80;99.90;;;;;;4141972;28;20222;-72
2023/03/22 06:35:14;;;;;;;18.60;8.33;;;7.80;99.90;;;;;;4149641;28;20634;-73
2023/03/22 06:37:16;;;;;;;19.97;9.53;;;7.80;99.90;;;;;;4159169;28;20248;-72
2023/03/22 06:39:21;;;;;;;20.63;9.73;;;7.80;99.90;;;;;;4147688;28;20666;-72
2023/03/22 06:41:23;;;;;;;16.37;9.43;;;7.90;99.90;;;;;;4138931;28;20685;-74
2023/03/22 06:43:26;;;;;;;13.80;8.40;;;7.90;99.90;;;;;;4139614;28;20219;-74
2023/03/22 06:45:32;;;;;;;15.50;8.67;;;7.90;99.90;;;;;;4142595;28;20304;-72
2023/03/22 06:47:34;;;;;;;17.00;9.43;;;8.00;99.90;;;;;;4140736;28;20199;-73
2023/03/22 06:49:36;;;;;;;19.10;9.70;;;8.00;99.90;;;;;;4139639;28;20288;-72
2023/03/22 06:51:37;;;;;;;18.77;10.07;;;8.00;99.90;;;;;;4153235;28;20255;-71
2023/03/22 06:53:39;;;;;;;16.07;9.10;;;8.10;99.90;;;;;;4143340;28;20452;-73
2023/03/22 06:55:41;;;;;;;17.03;8.50;;;8.20;99.90;;;;;;4142213;28;20210;-73
2023/03/22 06:57:43;;;;;;;13.43;8.03;;;8.20;99.90;;;;;;4139645;28;20246;-73
2023/03/22 06:59:47;;;;;;;14.10;8.20;;;8.30;99.90;;;;;;4135583;28;20291;-74
2023/03/22 07:01:51;;;;;;;16.90;9.17;;;8.30;99.90;;;;;;4131150;28;20312;-73
2023/03/22 07:03:53;;;;;;;17.02;10.40;;;8.40;99.90;;;;;;4133645;28;20970;-73
2023/03/22 07:06:01;;;;;;;17.13;9.07;;;8.50;99.90;;;;;;4142594;28;20208;-74
2023/03/22 07:08:03;;;;;;;17.40;8.97;;;8.50;99.90;;;;;;4137891;28;20672;-73
2023/03/22 07:10:06;;;;;;;18.03;9.70;;;8.60;99.90;;;;;;4139978;28;20237;-73
2023/03/22 07:12:11;;;;;;;15.83;8.37;;;8.60;99.90;;;;;;4139851;28;20260;-73
2023/03/22 07:14:13;;;;;;;17.17;9.13;;;8.60;99.90;;;;;;4144859;28;20259;-73
2023/03/22 07:16:16;;;;;;;16.60;8.77;;;8.70;99.90;;;;;;4141127;28;20288;-73
2023/03/22 07:18:21;;;;;;;16.17;8.40;;;8.70;99.90;;;;;;4138269;28;20248;-73
2023/03/22 07:20:23;;;;;;;14.20;7.93;;;8.70;99.90;;;;;;4144658;28;20300;-73
2023/03/22 07:22:26;;;;;;;15.50;8.50;;;8.80;99.90;;;;;;4143692;28;20719;-73
2023/03/22 07:24:28;;;;;;;15.60;8.37;;;8.90;99.90;;;;;;4144645;28;20214;-73
2023/03/22 07:26:30;;;;;;;14.70;7.73;;;8.90;99.90;;;;;;4142924;28;20244;-74
2023/03/22 07:28:32;;;;;;;14.87;8.63;;;8.90;99.90;;;;;;4142828;28;20240;-73
2023/03/22 07:30:36;;;;;;;14.10;8.27;;;9.00;99.90;;;;;;4139955;28;20703;-71
2023/03/22 07:32:41;;;;;;;17.17;8.33;;;9.00;99.90;;;;;;4138025;28;20234;-73
2023/03/22 07:34:43;;;;;;;15.83;8.50;;;9.10;99.90;;;;;;4140760;28;20492;-73
2023/03/22 07:36:44;;;;;;;14.27;7.83;;;9.10;99.90;;;;;;4142155;28;20201;-74
2023/03/22 07:38:46;;;;;;;16.23;7.83;;;9.20;99.90;;;;;;4142935;28;20707;-73
2023/03/22 07:40:53;;;;;;;14.73;8.47;;;9.20;99.90;;;;;;4156469;28;20233;-73
2023/03/22 07:42:55;;;;;;;19.33;8.83;;;9.20;99.90;;;;;;4139541;28;20245;-73
2023/03/22 07:45:00;;;;;;;14.40;8.00;;;9.20;99.90;;;;;;4156432;28;20259;-73
2023/03/22 07:47:02;;;;;;;13.87;7.60;;;9.30;99.90;;;;;;4137749;28;20238;-74
2023/03/22 07:49:05;;;;;;;15.27;8.20;;;9.30;99.90;;;;;;4141211;28;20323;-73
2023/03/22 07:51:07;;;;;;;14.00;8.17;;;9.30;99.90;;;;;;4140791;28;20211;-74
2023/03/22 07:53:12;;;;;;;14.83;7.90;;;9.40;99.90;;;;;;4138305;28;20799;-74
2023/03/22 07:55:15;;;;;;;14.67;8.93;;;9.50;99.90;;;;;;4141104;28;20210;-73
2023/03/22 07:57:16;;;;;;;16.03;8.63;;;9.50;99.90;;;;;;4138834;28;20222;-73
2023/03/22 07:59:20;;;;;;;14.83;8.60;;;9.60;99.90;;;;;;4143783;28;20646;-73
2023/03/22 08:01:23;;;;;;;13.83;8.43;;;9.60;99.90;;;;;;4141841;28;20242;-73
2023/03/22 08:03:27;;;;;;;13.60;8.10;;;9.60;99.90;;;;;;4148530;28;20686;-73
2023/03/22 08:05:33;;;;;;;15.47;8.63;;;9.60;99.90;;;;;;4148725;28;20215;-75
2023/03/22 08:07:35;;;;;;;17.03;9.00;;;9.70;99.90;;;;;;4143776;28;20215;-73
2023/03/22 08:09:39;;;;;;;15.83;8.93;;;9.70;99.90;;;;;;4151263;28;20284;-73
2023/03/22 08:11:41;;;;;;;17.70;8.73;;;9.70;99.90;;;;;;4149868;28;20225;-73
2023/03/22 08:13:43;;;;;;;16.87;9.53;;;9.70;99.90;;;;;;4148420;28;20210;-73
2023/03/22 08:15:45;;;;;;;20.80;9.27;;;9.80;99.90;;;;;;4143654;28;20233;-72
2023/03/22 08:17:48;;;;;;;16.33;8.93;;;9.80;99.90;;;;;;4139287;28;20242;-73
2023/03/22 08:19:54;;;;;;;15.87;8.80;;;9.80;99.90;;;;;;4142689;28;20907;-73
2023/03/22 08:21:59;;;;;;;17.93;8.70;;;9.90;99.90;;;;;;4140244;28;20256;-73
2023/03/22 08:24:01;;;;;;;16.17;8.53;;;10.00;99.90;;;;;;4143951;28;20211;-73
2023/03/22 08:26:04;;;;;;;15.43;7.90;;;10.10;99.90;;;;;;4157517;28;20218;-73
2023/03/22 08:28:06;;;;;;;13.27;7.47;;;10.20;99.90;;;;;;4137979;28;20666;-74
2023/03/22 08:30:11;;;;;;;12.23;7.87;;;10.30;99.90;;;;;;4144152;28;20747;-74
2023/03/22 08:32:14;;;;;;;13.27;7.63;;;10.40;99.90;;;;;;4145640;28;20697;-73
2023/03/22 08:34:15;;;;;;;14.33;7.83;;;10.50;99.90;;;;;;4135141;28;20732;-73
2023/03/22 08:36:21;;;;;;;12.67;7.53;;;10.50;99.90;;;;;;4133910;28;20743;-72
2023/03/22 08:38:25;;;;;;;15.43;8.30;;;10.60;99.90;;;;;;4143576;28;20686;-72
2023/03/22 08:40:27;;;;;;;14.43;7.80;;;10.60;99.90;;;;;;4140625;28;20215;-72
2023/03/22 08:42:31;;;;;;;14.43;7.63;;;10.70;99.90;;;;;;4138752;28;20266;-72
2023/03/22 08:44:33;;;;;;;12.63;7.43;;;10.70;99.90;;;;;;4139439;28;20681;-72
2023/03/22 08:46:35;;;;;;;12.53;7.93;;;10.80;99.90;;;;;;4154394;28;20306;-74
2023/03/22 08:48:40;;;;;;;13.83;7.73;;;10.80;99.90;;;;;;4155199;28;20643;-74
2023/03/22 08:50:42;;;;;;;17.90;7.63;;;10.90;99.90;;;;;;4138251;28;20214;-73
2023/03/22 08:52:44;;;;;;;12.83;7.17;;;11.00;99.90;;;;;;4140883;28;20223;-72
2023/03/22 08:54:47;;;;;;;12.17;7.47;;;11.00;99.90;;;;;;4150891;28;20215;-72
2023/03/22 08:56:50;;;;;;;14.23;7.67;;;11.10;99.90;;;;;;4151430;28;20216;-72
2023/03/22 08:58:52;;;;;;;12.80;7.63;;;11.20;99.90;;;;;;4140407;28;20254;-74
2023/03/22 09:00:54;;;;;;;15.23;8.00;;;11.20;99.90;;;;;;4139940;28;20239;-73
2023/03/22 09:02:56;;;;;;;13.37;7.93;;;11.20;99.90;;;;;;4134381;28;20656;-73
2023/03/22 09:04:58;;;;;;;13.33;6.53;;;11.30;99.90;;;;;;4153905;28;20308;-71
2023/03/22 09:07:00;;;;;;;12.83;7.53;;;11.30;99.90;;;;;;4143796;28;20321;-72
2023/03/22 09:09:02;;;;;;;13.73;7.67;;;11.40;99.90;;;;;;4140058;28;20227;-73
2023/03/22 09:11:08;;;;;;;11.50;6.37;;;11.50;99.90;;;;;;4138538;28;20215;-74
2023/03/22 09:13:12;;;;;;;11.30;6.70;;;11.50;99.90;;;;;;4141844;28;20594;-72
2023/03/22 09:15:14;;;;;;;10.93;5.60;;;11.60;99.90;;;;;;4142352;28;20606;-72
2023/03/22 09:17:17;;;;;;;12.10;5.63;;;11.60;99.90;;;;;;4143143;28;20204;-72
2023/03/22 09:19:19;;;;;;;8.63;4.90;;;11.70;99.90;;;;;;4143844;28;20638;-72
2023/03/22 09:21:21;;;;;;;8.17;5.10;;;11.80;99.90;;;;;;4143330;28;20626;-72
2023/03/22 09:23:23;;;;;;;7.93;5.00;;;11.80;99.90;;;;;;4137577;28;20207;-72
2023/03/22 09:25:25;;;;;;;10.07;5.73;;;11.90;99.90;;;;;;4148097;28;20207;-72
2023/03/22 09:27:29;;;;;;;10.10;5.53;;;11.90;99.90;;;;;;4142377;28;20208;-73
2023/03/22 09:29:31;;;;;;;12.63;5.87;;;12.00;99.90;;;;;;4144685;28;20214;-73
2023/03/22 09:31:34;;;;;;;9.43;4.83;;;12.10;99.90;;;;;;4141722;28;20228;-72
2023/03/22 09:33:37;;;;;;;9.40;5.40;;;12.10;99.90;;;;;;4138452;28;20582;-72
2023/03/22 09:35:41;;;;;;;8.20;5.10;;;12.20;99.90;;;;;;4137329;28;20287;-71
2023/03/22 09:37:44;;;;;;;7.90;5.07;;;12.30;99.90;;;;;;4154212;28;20294;-71
2023/03/22 09:39:46;;;;;;;11.03;5.37;;;12.40;99.90;;;;;;4134510;28;20215;-73
2023/03/22 09:41:53;;;;;;;8.37;4.70;;;12.50;99.90;;;;;;4136521;28;20236;-72
2023/03/22 09:44:02;;;;;;;11.00;5.10;;;12.50;99.90;;;;;;4137665;28;20252;-73
2023/03/22 09:46:07;;;;;;;9.60;4.90;;;12.60;99.90;;;;;;4134804;28;20682;-73
2023/03/22 09:48:17;;;;;;;9.47;5.33;;;12.60;99.90;;;;;;4137735;28;20242;-73
2023/03/22 09:50:22;;;;;;;12.17;5.40;;;12.70;99.90;;;;;;4136229;28;20245;-73
2023/03/22 09:52:24;;;;;;;9.30;5.23;;;12.70;99.90;;;;;;4136196;28;20286;-72
2023/03/22 09:54:32;;;;;;;9.13;4.97;;;12.70;99.90;;;;;;4150787;28;20239;-72
2023/03/22 09:56:34;;;;;;;10.00;5.00;;;12.80;99.90;;;;;;4136003;28;20217;-72
2023/03/22 09:58:42;;;;;;;9.23;5.20;;;12.80;99.90;;;;;;4136038;28;20223;-73
2023/03/22 10:00:51;;;;;;;10.00;5.67;;;12.90;99.90;;;;;;4136174;28;20790;-73
2023/03/22 10:03:02;;;;;;;8.50;5.13;;;13.00;99.90;;;;;;4136489;28;20294;-71
2023/03/22 10:05:15;;;;;;;7.03;3.93;;;13.00;99.90;;;;;;4135584;28;20287;-72
2023/03/22 10:07:27;;;;;;;7.20;4.57;;;13.10;99.90;;;;;;4139690;28;20595;-72
2023/03/22 10:09:34;;;;;;;8.97;4.60;;;13.20;99.90;;;;;;4145024;28;20260;-72
2023/03/22 10:11:42;;;;;;;7.17;3.53;;;13.40;99.90;;;;;;4141748;28;20249;-72
2023/03/22 10:13:57;;;;;;;7.93;3.57;;;13.50;99.90;;;;;;4142917;28;20243;-72
2023/03/22 10:16:04;;;;;;;4.60;2.90;;;13.50;99.90;;;;;;4145763;28;20292;-73
2023/03/22 10:18:08;;;;;;;9.37;3.27;;;13.50;99.90;;;;;;4140528;28;20216;-71
2023/03/22 10:20:21;;;;;;;7.10;3.30;;;13.50;99.90;;;;;;4143921;28;20687;-72
2023/03/22 10:22:28;;;;;;;7.10;3.77;;;13.50;99.90;;;;;;4151505;28;20888;-71
2023/03/22 10:24:35;;;;;;;5.13;3.10;;;13.50;99.90;;;;;;4137573;28;20310;-72
2023/03/22 10:26:39;;;;;;;5.97;3.70;;;13.60;99.90;;;;;;4139504;28;20235;-72
2023/03/22 10:28:44;;;;;;;11.33;3.90;;;13.50;99.90;;;;;;4138862;28;20788;-71
2023/03/22 10:30:52;;;;;;;8.13;3.73;;;13.60;99.90;;;;;;4138110;28;20205;-72
2023/03/22 10:33:01;;;;;;;6.80;3.80;;;13.60;99.90;;;;;;4136301;28;20690;-72
2023/03/22 10:35:03;;;;;;;10.00;4.23;;;13.70;99.90;;;;;;4151122;28;20228;-71
2023/03/22 10:37:07;;;;;;;8.00;4.23;;;13.70;99.90;;;;;;4143473;28;20205;-71
2023/03/22 10:39:15;;;;;;;10.77;4.47;;;13.70;99.90;;;;;;4153919;28;20650;-71
2023/03/22 10:41:20;;;;;;;8.07;4.20;;;13.80;99.90;;;;;;4141323;28;20367;-71
2023/03/22 10:43:26;;;;;;;8.70;4.33;;;14.00;99.90;;;;;;4154932;28;20209;-73
2023/03/22 10:45:30;;;;;;;6.40;4.50;;;14.20;99.90;;;;;;4135996;28;20218;-72
2023/03/22 10:47:36;;;;;;;7.53;3.80;;;14.40;99.90;;;;;;4144921;28;20211;-72
2023/03/22 10:49:43;;;;;;;6.47;3.90;;;14.50;99.90;;;;;;4146258;28;20216;-73